Time;durP1;ratioP1;P1;durP2;ratioP2;P2;SDS_P1;SDS_P2;PMS_P1;PMS_P2;Temp;Humidity;BMP_temperature;BMP_pressure;BME280_temperature;BME280_humidity;BME280_pressure;Samples;Min_cycle;Max_cycle;Signal;HPM_P1;HPM_P2
2022/04/06 00:01:37;;;;;;;103.35;30.42;;;8.60;99.90;;;;;;5051163;28;20041;-72
2022/04/06 00:04:03;;;;;;;98.40;28.92;;;8.90;99.90;;;;;;5051899;28;20044;-65
2022/04/06 00:06:29;;;;;;;100.45;30.98;;;8.60;99.90;;;;;;5047619;28;20073;-69
2022/04/06 00:08:54;;;;;;;97.40;30.83;;;8.70;99.90;;;;;;5032488;28;20393;-67
2022/04/06 00:11:20;;;;;;;95.80;29.70;;;8.70;99.90;;;;;;5050033;28;20055;-68
2022/04/06 00:13:45;;;;;;;95.50;27.77;;;8.60;99.90;;;;;;5049727;28;20037;-70
2022/04/06 00:16:11;;;;;;;88.97;28.02;;;8.60;99.90;;;;;;5050669;28;20045;-75
2022/04/06 00:18:36;;;;;;;74.05;25.73;;;8.60;99.90;;;;;;5033362;28;20036;-66
2022/04/06 00:21:03;;;;;;;82.72;25.98;;;8.60;99.90;;;;;;5051162;28;20533;-66
2022/04/06 00:23:28;;;;;;;104.60;25.77;;;8.60;99.90;;;;;;5049851;28;20037;-65
2022/04/06 00:25:55;;;;;;;84.28;25.95;;;8.70;99.90;;;;;;5051395;28;20479;-66
2022/04/06 00:28:21;;;;;;;91.25;26.50;;;8.70;99.90;;;;;;5062614;28;20044;-69
2022/04/06 00:30:46;;;;;;;85.28;25.65;;;8.90;99.90;;;;;;5031644;28;20087;-73
2022/04/06 00:33:12;;;;;;;84.63;24.67;;;8.80;99.90;;;;;;5050516;28;20052;-71
2022/04/06 00:35:38;;;;;;;94.55;27.20;;;8.90;99.90;;;;;;5048566;28;20052;-71
2022/04/06 00:38:05;;;;;;;83.18;26.38;;;8.60;99.90;;;;;;5051332;28;20041;-67
2022/04/06 00:40:33;;;;;;;84.88;26.75;;;8.90;99.90;;;;;;5049855;28;20047;-67
2022/04/06 00:42:59;;;;;;;89.20;27.00;;;8.80;99.90;;;;;;5050538;28;20039;-67
2022/04/06 00:45:24;;;;;;;94.85;27.02;;;8.90;99.90;;;;;;5034650;28;20127;-68
2022/04/06 00:47:51;;;;;;;94.35;26.67;;;8.70;99.90;;;;;;5050321;28;20542;-66
2022/04/06 00:50:17;;;;;;;76.25;25.48;;;8.70;99.90;;;;;;5029461;28;20072;-74
2022/04/06 00:52:43;;;;;;;91.50;27.20;;;8.60;99.90;;;;;;5047522;28;20395;-68
2022/04/06 00:55:11;;;;;;;83.25;25.80;;;8.90;99.90;;;;;;5048573;28;20045;-68
2022/04/06 00:57:37;;;;;;;82.38;24.70;;;8.70;99.90;;;;;;5049261;28;20064;-68
2022/04/06 01:00:05;;;;;;;74.80;24.52;;;8.60;99.90;;;;;;5050427;28;20037;-65
2022/04/06 01:02:31;;;;;;;87.13;24.08;;;8.80;99.90;;;;;;5047154;28;20037;-64
2022/04/06 01:04:57;;;;;;;76.75;23.23;;;8.90;99.90;;;;;;5046997;28;20037;-66
2022/04/06 01:07:22;;;;;;;81.72;22.75;;;8.90;99.90;;;;;;5064162;28;20048;-72
2022/04/06 01:09:48;;;;;;;71.10;22.25;;;8.60;99.90;;;;;;5050284;28;20041;-65
2022/04/06 01:12:14;;;;;;;73.00;22.58;;;8.60;99.90;;;;;;5033031;28;20041;-65
2022/04/06 01:14:41;;;;;;;89.95;22.33;;;8.60;99.90;;;;;;5048535;28;20045;-73
2022/04/06 01:17:08;;;;;;;70.35;22.20;;;8.80;99.90;;;;;;5033424;28;20041;-72
2022/04/06 01:19:47;;;;;;;84.85;23.50;;;8.80;99.90;;;;;;5047657;28;20040;-65
2022/04/06 01:22:18;;;;;;;74.75;22.45;;;8.80;99.90;;;;;;5050649;28;20056;-72
2022/04/06 01:24:46;;;;;;;74.00;22.58;;;8.60;99.90;;;;;;5053775;28;20074;-64
2022/04/06 01:27:12;;;;;;;80.15;21.27;;;8.60;99.90;;;;;;5049146;28;20041;-66
2022/04/06 01:29:40;;;;;;;71.43;21.52;;;8.60;99.90;;;;;;5048858;28;20416;-65
2022/04/06 01:32:12;;;;;;;76.25;20.73;;;8.60;99.90;;;;;;5049778;28;20078;-66
2022/04/06 01:34:39;;;;;;;76.32;20.88;;;8.80;99.90;;;;;;5052343;28;20120;-64
2022/04/06 01:37:06;;;;;;;71.63;20.65;;;8.70;99.90;;;;;;5056441;28;20049;-70
2022/04/06 01:39:35;;;;;;;69.32;19.17;;;8.70;99.90;;;;;;5051584;28;20033;-64
2022/04/06 01:42:03;;;;;;;62.90;18.85;;;8.80;99.90;;;;;;5048731;28;20040;-68
2022/04/06 01:44:29;;;;;;;68.75;18.33;;;8.70;99.90;;;;;;5049468;28;20063;-65
2022/04/06 01:46:55;;;;;;;70.75;18.45;;;8.50;99.90;;;;;;5048975;28;20033;-66
2022/04/06 01:52:14;;;;;;;60.15;18.00;;;8.60;99.90;;;;;;5047617;28;20128;-63
2022/04/06 01:54:48;;;;;;;73.47;17.10;;;8.70;99.90;;;;;;5046271;28;20167;-65
2022/04/06 01:57:14;;;;;;;69.18;18.52;;;8.80;99.90;;;;;;5049278;28;20480;-65
2022/04/06 01:59:41;;;;;;;61.85;17.10;;;8.50;99.90;;;;;;5058448;28;20040;-64
2022/04/06 02:02:08;;;;;;;65.03;19.15;;;8.80;99.90;;;;;;5052891;28;20433;-66
2022/04/06 02:04:33;;;;;;;60.20;16.48;;;8.60;99.90;;;;;;5051515;28;20048;-73
2022/04/06 02:06:59;;;;;;;52.50;14.05;;;8.60;99.90;;;;;;5049973;28;20143;-65
2022/04/06 02:09:25;;;;;;;58.05;14.10;;;8.50;99.90;;;;;;5049264;28;20076;-63
2022/04/06 02:11:50;;;;;;;46.90;14.15;;;8.70;99.90;;;;;;5048454;28;20423;-65
2022/04/06 02:14:16;;;;;;;55.15;14.38;;;8.70;99.90;;;;;;5051794;28;20048;-65
2022/04/06 02:16:43;;;;;;;64.65;14.93;;;8.80;99.90;;;;;;5046596;28;20407;-65
2022/04/06 02:19:09;;;;;;;51.75;13.10;;;8.80;99.90;;;;;;5047378;28;20047;-65
2022/04/06 02:21:35;;;;;;;51.90;12.52;;;8.60;99.90;;;;;;5031805;28;20243;-67
2022/04/06 02:24:01;;;;;;;59.67;14.23;;;8.60;99.90;;;;;;5045792;28;20029;-64
2022/04/06 02:26:27;;;;;;;50.53;14.45;;;8.60;99.90;;;;;;5048119;28;20102;-65
2022/04/06 02:28:54;;;;;;;61.65;14.30;;;8.60;99.90;;;;;;5047416;28;20745;-64
2022/04/06 02:31:19;;;;;;;45.28;13.88;;;8.70;99.90;;;;;;5048504;28;20400;-65
2022/04/06 02:33:45;;;;;;;72.40;15.27;;;8.70;99.90;;;;;;5047875;28;20033;-67
2022/04/06 02:36:10;;;;;;;62.83;14.98;;;8.80;99.90;;;;;;5051424;28;20037;-64
2022/04/06 02:38:38;;;;;;;61.30;15.70;;;8.50;99.90;;;;;;5046216;28;20041;-63
2022/04/06 02:41:06;;;;;;;76.55;16.13;;;8.70;99.90;;;;;;5048242;28;20033;-65
2022/04/06 02:43:32;;;;;;;59.60;15.02;;;8.70;99.90;;;;;;5031631;28;20168;-66
2022/04/06 02:45:57;;;;;;;62.58;15.93;;;8.50;99.90;;;;;;5048834;28;20120;-66
2022/04/06 02:48:23;;;;;;;68.65;15.20;;;8.80;99.90;;;;;;5047939;28;20044;-73
2022/04/06 02:50:48;;;;;;;75.18;16.95;;;8.80;99.90;;;;;;5045006;28;20171;-68
2022/04/06 02:53:14;;;;;;;70.20;15.35;;;8.70;99.90;;;;;;5043111;28;20082;-66
2022/04/06 02:55:39;;;;;;;66.90;14.77;;;8.60;99.90;;;;;;5047805;28;20047;-66
2022/04/06 02:58:05;;;;;;;76.95;16.90;;;8.70;99.90;;;;;;5048085;28;20067;-66
2022/04/06 03:00:32;;;;;;;72.13;18.10;;;8.70;99.90;;;;;;5046752;28;20551;-66
2022/04/06 03:02:58;;;;;;;69.07;18.02;;;8.70;99.90;;;;;;5048712;28;20391;-67
2022/04/06 03:05:25;;;;;;;82.10;18.65;;;8.90;99.90;;;;;;5048011;28;20095;-67
2022/04/06 03:07:51;;;;;;;85.28;21.52;;;8.90;99.90;;;;;;5047194;28;20052;-67
2022/04/06 03:10:16;;;;;;;108.68;22.65;;;8.70;99.90;;;;;;5030509;28;21286;-65
2022/04/06 03:12:42;;;;;;;81.55;19.50;;;8.90;99.90;;;;;;5047486;28;20049;-65
2022/04/06 03:15:08;;;;;;;83.38;21.52;;;8.90;99.90;;;;;;5047954;28;20041;-66
2022/04/06 03:17:35;;;;;;;83.28;22.15;;;8.70;99.90;;;;;;5048288;28;20084;-64
2022/04/06 03:20:02;;;;;;;85.97;22.35;;;8.80;99.90;;;;;;5047453;28;20390;-65
2022/04/06 03:22:28;;;;;;;88.07;21.83;;;8.70;99.90;;;;;;5048590;28;20051;-65
2022/04/06 03:24:54;;;;;;;95.65;24.08;;;8.80;99.90;;;;;;5049854;28;20041;-65
2022/04/06 03:27:20;;;;;;;89.57;23.55;;;8.90;99.90;;;;;;5049809;28;20037;-66
2022/04/06 03:29:45;;;;;;;89.63;22.83;;;9.00;99.90;;;;;;5057675;28;20052;-66
2022/04/06 03:32:11;;;;;;;85.72;22.65;;;8.90;99.90;;;;;;5025318;28;20127;-70
2022/04/06 03:34:37;;;;;;;80.75;22.88;;;9.00;99.90;;;;;;5061954;28;20045;-65
2022/04/06 03:37:03;;;;;;;78.70;22.95;;;8.70;99.90;;;;;;5034565;28;20060;-66
2022/04/06 03:39:29;;;;;;;80.30;23.50;;;9.00;99.90;;;;;;5050430;28;20045;-76
2022/04/06 03:41:56;;;;;;;90.13;21.38;;;8.70;99.90;;;;;;5047276;28;20032;-66
2022/04/06 03:44:22;;;;;;;80.28;23.40;;;8.70;99.90;;;;;;5051468;28;20049;-67
2022/04/06 03:46:48;;;;;;;82.78;20.38;;;8.70;99.90;;;;;;5049873;28;20041;-67
2022/04/06 03:49:14;;;;;;;79.10;20.45;;;8.70;99.90;;;;;;5040080;28;20037;-64
2022/04/06 03:51:39;;;;;;;70.72;21.17;;;8.90;99.90;;;;;;5046875;28;20044;-67
2022/04/06 03:54:05;;;;;;;71.95;20.90;;;8.80;99.90;;;;;;5051364;28;20384;-70
2022/04/06 03:56:31;;;;;;;76.63;19.92;;;8.80;99.90;;;;;;5051288;28;20072;-65
2022/04/06 03:58:57;;;;;;;68.07;17.33;;;8.80;99.90;;;;;;5050732;28;20037;-66
2022/04/06 04:01:22;;;;;;;65.85;18.73;;;8.80;99.90;;;;;;5051450;28;20032;-65
2022/04/06 04:03:48;;;;;;;67.53;18.20;;;9.00;99.90;;;;;;5052401;28;20044;-66
2022/04/06 04:06:13;;;;;;;60.55;19.15;;;9.00;99.90;;;;;;5052494;28;20055;-69
2022/04/06 04:08:39;;;;;;;67.65;18.27;;;8.90;99.90;;;;;;5049750;28;20052;-65
2022/04/06 04:11:04;;;;;;;55.42;16.40;;;9.00;99.90;;;;;;5052576;28;20056;-66
2022/04/06 04:13:30;;;;;;;51.13;13.80;;;8.80;99.90;;;;;;5052376;28;20071;-73
2022/04/06 04:15:55;;;;;;;58.75;15.15;;;9.00;99.90;;;;;;5052265;28;20048;-68
2022/04/06 04:18:22;;;;;;;49.88;14.63;;;9.00;99.90;;;;;;5052456;28;20140;-67
2022/04/06 04:20:48;;;;;;;58.22;14.80;;;8.90;99.90;;;;;;5051156;28;20044;-70
2022/04/06 04:23:14;;;;;;;54.85;14.60;;;8.90;99.90;;;;;;5033430;28;20373;-71
2022/04/06 04:25:39;;;;;;;49.78;12.93;;;8.80;99.90;;;;;;5034894;28;20380;-65
2022/04/06 04:28:05;;;;;;;49.17;13.48;;;9.00;99.90;;;;;;5051687;28;20099;-66
2022/04/06 04:30:31;;;;;;;49.47;13.00;;;8.90;99.90;;;;;;5050542;28;20075;-71
2022/04/06 04:32:57;;;;;;;53.08;13.02;;;9.00;99.90;;;;;;5051054;28;20487;-66
2022/04/06 04:35:22;;;;;;;44.42;11.90;;;8.90;99.90;;;;;;5051928;28;20089;-70
2022/04/06 04:37:48;;;;;;;57.13;12.68;;;8.90;99.90;;;;;;5051220;28;20076;-63
2022/04/06 04:40:16;;;;;;;42.63;11.60;;;8.70;99.90;;;;;;5049596;28;20044;-69
2022/04/06 04:42:42;;;;;;;36.97;11.73;;;8.80;99.90;;;;;;5051692;28;20037;-73
2022/04/06 04:45:09;;;;;;;43.10;11.73;;;8.80;99.90;;;;;;5053210;28;20373;-68
2022/04/06 04:47:34;;;;;;;42.58;11.23;;;8.80;99.90;;;;;;5052131;28;20048;-67
2022/04/06 04:50:00;;;;;;;39.67;10.80;;;8.70;99.90;;;;;;5051102;28;20098;-72
2022/04/06 04:52:26;;;;;;;47.88;11.80;;;8.80;99.90;;;;;;5054066;28;20044;-64
2022/04/06 04:54:52;;;;;;;44.30;10.90;;;8.70;99.90;;;;;;5053561;28;20467;-64
2022/04/06 04:57:18;;;;;;;43.28;11.00;;;8.80;99.90;;;;;;5044388;28;20032;-66
2022/04/06 04:59:43;;;;;;;42.60;10.57;;;8.80;99.90;;;;;;5049113;28;20033;-67
2022/04/06 05:02:09;;;;;;;34.55;10.68;;;8.70;99.90;;;;;;5051611;28;20052;-65
2022/04/06 05:04:37;;;;;;;35.30;9.85;;;8.60;99.90;;;;;;5048147;28;20494;-73
2022/04/06 05:07:03;;;;;;;52.08;12.10;;;8.60;99.90;;;;;;5050673;28;20048;-64
2022/04/06 05:09:28;;;;;;;42.13;9.90;;;8.70;99.90;;;;;;5052716;28;20056;-66
2022/04/06 05:11:54;;;;;;;35.90;10.50;;;8.60;99.90;;;;;;5038558;28;20033;-68
2022/04/06 05:14:20;;;;;;;45.60;12.02;;;8.70;99.90;;;;;;5049970;28;20037;-67
2022/04/06 05:16:46;;;;;;;50.42;10.65;;;8.60;99.90;;;;;;5050622;28;20503;-74
2022/04/06 05:19:11;;;;;;;46.13;11.55;;;8.70;99.90;;;;;;5049832;28;20037;-66
2022/04/06 05:21:37;;;;;;;41.03;11.20;;;8.70;99.90;;;;;;5050435;28;20334;-67
2022/04/06 05:24:04;;;;;;;42.47;9.88;;;8.70;99.90;;;;;;5050511;28;20054;-67
2022/04/06 05:26:30;;;;;;;35.33;9.80;;;8.70;99.90;;;;;;5034067;28;20064;-67
2022/04/06 05:28:57;;;;;;;49.25;10.85;;;8.60;99.90;;;;;;5048331;28;20565;-73
2022/04/06 05:31:22;;;;;;;38.00;10.48;;;8.60;99.90;;;;;;5050236;28;20129;-65
2022/04/06 05:33:49;;;;;;;46.90;9.48;;;8.70;99.90;;;;;;5032135;28;20135;-64
2022/04/06 05:36:15;;;;;;;40.65;9.13;;;8.70;99.90;;;;;;5059480;28;20029;-68
2022/04/06 05:38:40;;;;;;;40.42;8.55;;;8.60;99.90;;;;;;5047075;28;20345;-68
2022/04/06 05:41:07;;;;;;;36.33;8.30;;;8.60;99.90;;;;;;5060906;28;20087;-66
2022/04/06 05:43:32;;;;;;;40.75;8.52;;;8.70;99.90;;;;;;5053520;28;20033;-67
2022/04/06 05:45:58;;;;;;;32.63;8.85;;;8.70;99.90;;;;;;5048897;28;20040;-66
2022/04/06 05:48:23;;;;;;;42.58;8.40;;;8.60;99.90;;;;;;5032150;28;20389;-68
2022/04/06 05:50:50;;;;;;;32.83;7.75;;;8.70;99.90;;;;;;5032308;28;20123;-67
2022/04/06 05:53:16;;;;;;;34.20;8.38;;;8.50;99.90;;;;;;5049722;28;20060;-66
2022/04/06 05:55:43;;;;;;;29.70;7.45;;;8.70;99.90;;;;;;5050254;28;20055;-68
2022/04/06 05:58:09;;;;;;;31.90;7.45;;;8.60;99.90;;;;;;5058060;28;20469;-66
2022/04/06 06:00:34;;;;;;;30.25;6.75;;;8.60;99.90;;;;;;5045059;28;20132;-66
2022/04/06 06:03:00;;;;;;;27.08;6.53;;;8.60;99.90;;;;;;5061477;28;20033;-65
2022/04/06 06:05:25;;;;;;;25.35;6.25;;;8.60;99.90;;;;;;5051106;28;20041;-65
2022/04/06 06:07:51;;;;;;;22.08;5.85;;;8.60;99.90;;;;;;5047741;28;20541;-68
2022/04/06 06:10:16;;;;;;;20.40;5.80;;;8.50;99.90;;;;;;5056566;28;20032;-69
2022/04/06 06:12:42;;;;;;;23.15;4.93;;;8.50;99.90;;;;;;5041254;28;20041;-66
2022/04/06 06:15:08;;;;;;;25.63;5.32;;;8.60;99.90;;;;;;5052536;28;20148;-68
2022/04/06 06:17:38;;;;;;;24.58;5.43;;;8.60;99.90;;;;;;5048591;28;20132;-67
2022/04/06 06:20:05;;;;;;;25.45;5.60;;;8.70;99.90;;;;;;5049747;28;20091;-67
2022/04/06 06:22:30;;;;;;;22.52;5.43;;;8.70;99.90;;;;;;5045533;28;20033;-66
2022/04/06 06:24:56;;;;;;;26.52;5.80;;;8.50;99.90;;;;;;5050807;28;20037;-68
2022/04/06 06:27:23;;;;;;;24.77;4.65;;;8.70;99.90;;;;;;5050313;28;20041;-65
2022/04/06 06:29:49;;;;;;;18.33;4.68;;;8.50;99.90;;;;;;5047253;28;20404;-66
2022/04/06 06:32:15;;;;;;;26.30;5.25;;;8.50;99.90;;;;;;5067221;28;20044;-67
2022/04/06 06:34:40;;;;;;;22.23;5.57;;;8.60;99.90;;;;;;5049186;28;20045;-66
2022/04/06 06:37:06;;;;;;;27.17;6.05;;;8.50;99.90;;;;;;5043372;28;20045;-66
2022/04/06 06:39:32;;;;;;;28.60;6.20;;;8.50;99.90;;;;;;5049122;28;20074;-69
2022/04/06 06:41:57;;;;;;;27.73;5.80;;;8.40;99.90;;;;;;5049809;28;20075;-68
2022/04/06 06:44:23;;;;;;;26.52;6.10;;;8.40;99.90;;;;;;5046213;28;20040;-68
2022/04/06 06:46:48;;;;;;;29.10;6.55;;;8.40;99.90;;;;;;5045261;28;20518;-70
2022/04/06 06:49:15;;;;;;;31.92;7.43;;;8.50;99.90;;;;;;5049345;28;20419;-70
2022/04/06 06:51:41;;;;;;;28.38;6.55;;;8.60;99.90;;;;;;5049487;28;20123;-65
2022/04/06 06:54:07;;;;;;;33.88;6.75;;;8.50;99.90;;;;;;5047993;28;20124;-66
2022/04/06 06:56:33;;;;;;;25.75;6.28;;;8.60;99.90;;;;;;5066235;28;20419;-68
2022/04/06 06:58:59;;;;;;;31.20;7.00;;;8.50;99.90;;;;;;5032119;28;20041;-66
2022/04/06 07:01:24;;;;;;;32.00;7.57;;;8.60;99.90;;;;;;5047996;28;20037;-64
2022/04/06 07:03:50;;;;;;;33.25;6.30;;;8.50;99.90;;;;;;5045674;28;20033;-67
2022/04/06 07:06:16;;;;;;;24.48;5.40;;;8.70;99.90;;;;;;5036393;28;20378;-68
2022/04/06 07:08:41;;;;;;;31.52;6.25;;;8.60;99.90;;;;;;5048463;28;20044;-68
2022/04/06 07:11:07;;;;;;;33.10;7.47;;;8.60;99.90;;;;;;5052809;28;20047;-66
2022/04/06 07:13:33;;;;;;;30.67;6.60;;;8.60;99.90;;;;;;5052605;28;20511;-67
2022/04/06 07:15:58;;;;;;;31.27;6.50;;;8.70;99.90;;;;;;5032233;28;20127;-65
2022/04/06 07:18:24;;;;;;;37.55;7.25;;;8.60;99.90;;;;;;5047993;28;20072;-66
2022/04/06 07:20:49;;;;;;;34.88;7.20;;;8.60;99.90;;;;;;5039564;28;20033;-69
2022/04/06 07:23:15;;;;;;;30.60;7.07;;;8.80;99.90;;;;;;5052790;28;20123;-63
2022/04/06 07:25:41;;;;;;;31.05;7.43;;;8.60;99.90;;;;;;5053151;28;20079;-67
2022/04/06 07:28:07;;;;;;;35.35;7.22;;;8.80;99.90;;;;;;5053166;28;20080;-68
2022/04/06 07:30:32;;;;;;;30.10;7.47;;;8.50;99.90;;;;;;5051244;28;20127;-68
2022/04/06 07:32:58;;;;;;;37.72;8.57;;;8.50;99.90;;;;;;5053144;28;20160;-67
2022/04/06 07:35:25;;;;;;;36.88;7.90;;;8.70;99.90;;;;;;5052921;28;20400;-71
2022/04/06 07:37:51;;;;;;;31.70;9.57;;;8.80;99.90;;;;;;5052874;28;20054;-66
2022/04/06 07:40:23;;;;;;;32.80;8.43;;;8.80;99.90;;;;;;5052540;28;20047;-70
2022/04/06 07:42:50;;;;;;;35.58;8.48;;;8.60;99.90;;;;;;5053468;28;20049;-68
2022/04/06 07:45:18;;;;;;;36.70;9.02;;;8.70;99.90;;;;;;5043844;28;20120;-66
2022/04/06 07:47:50;;;;;;;38.25;9.43;;;8.70;99.90;;;;;;5032644;28;20049;-68
2022/04/06 07:50:17;;;;;;;42.20;9.10;;;8.70;99.90;;;;;;5038918;28;20072;-68
2022/04/06 07:52:44;;;;;;;40.67;9.65;;;8.90;99.90;;;;;;5048865;28;20408;-69
2022/04/06 07:55:10;;;;;;;37.15;9.43;;;8.70;99.90;;;;;;5049463;28;20055;-70
2022/04/06 07:57:36;;;;;;;38.22;10.18;;;8.70;99.90;;;;;;5049128;28;20067;-67
2022/04/06 08:00:07;;;;;;;33.17;8.95;;;8.70;99.90;;;;;;5051426;28;20384;-69
2022/04/06 08:02:33;;;;;;;38.60;10.18;;;8.90;99.90;;;;;;5050549;28;20041;-72
2022/04/06 08:04:58;;;;;;;40.70;10.10;;;8.90;99.90;;;;;;5048761;28;20568;-71
2022/04/06 08:07:24;;;;;;;40.95;10.52;;;9.00;99.90;;;;;;5052051;28;20079;-67
2022/04/06 08:09:50;;;;;;;42.10;12.10;;;8.90;99.90;;;;;;5051798;28;20044;-72
2022/04/06 08:12:15;;;;;;;38.13;9.38;;;8.90;99.90;;;;;;5052550;28;20124;-66
2022/04/06 08:14:41;;;;;;;42.17;10.05;;;9.00;99.90;;;;;;5052513;28;20041;-67
2022/04/06 08:17:06;;;;;;;36.92;9.88;;;9.10;99.90;;;;;;5049988;28;20495;-69
2022/04/06 08:23:20;;;;;;;39.30;10.57;;;9.10;99.90;;;;;;5049396;28;20028;-65
2022/04/06 08:26:17;;;;;;;41.05;10.30;;;9.10;99.90;;;;;;5035392;28;20394;-66
2022/04/06 08:28:42;;;;;;;40.42;9.02;;;8.90;99.90;;;;;;5046023;28;20036;-66
2022/04/06 08:31:09;;;;;;;38.83;9.68;;;9.10;99.90;;;;;;5051904;28;20094;-68
2022/04/06 08:33:36;;;;;;;39.20;8.60;;;8.80;99.90;;;;;;5040811;28;20053;-67
2022/04/06 08:36:06;;;;;;;36.63;8.90;;;8.80;99.90;;;;;;5033789;28;20495;-69
2022/04/06 08:38:32;;;;;;;34.05;8.25;;;9.00;99.90;;;;;;5068578;28;20049;-69
2022/04/06 08:40:57;;;;;;;35.03;8.20;;;9.00;99.90;;;;;;5051711;28;20045;-69
2022/04/06 08:43:24;;;;;;;35.78;9.00;;;9.00;99.90;;;;;;5056724;28;20120;-65
2022/04/06 08:45:50;;;;;;;33.58;7.90;;;8.80;99.90;;;;;;5051134;28;20033;-66
2022/04/06 08:48:18;;;;;;;28.90;7.25;;;8.80;99.90;;;;;;5052010;28;20510;-67
2022/04/06 08:50:45;;;;;;;30.40;7.35;;;8.80;99.90;;;;;;5051473;28;20051;-66
2022/04/06 08:53:12;;;;;;;27.65;7.85;;;9.00;99.90;;;;;;5034050;28;20033;-65
2022/04/06 08:55:38;;;;;;;32.70;8.18;;;8.80;99.90;;;;;;5051526;28;20091;-69
2022/04/06 08:58:04;;;;;;;28.05;7.55;;;9.00;99.90;;;;;;5051532;28;20033;-68
2022/04/06 09:00:31;;;;;;;32.53;8.48;;;8.70;99.90;;;;;;5050709;28;20509;-69
2022/04/06 09:02:57;;;;;;;31.77;8.05;;;9.00;99.90;;;;;;5051495;28;20091;-68
2022/04/06 09:05:26;;;;;;;33.88;7.30;;;9.00;99.90;;;;;;5051970;28;20037;-67
2022/04/06 09:07:52;;;;;;;27.35;7.90;;;8.80;99.90;;;;;;5051018;28;20052;-66
2022/04/06 09:10:32;;;;;;;34.20;8.38;;;9.20;99.90;;;;;;5051096;28;20037;-70
2022/04/06 09:13:20;;;;;;;30.90;9.30;;;9.00;99.90;;;;;;5047891;28;20041;-70
2022/04/06 09:15:47;;;;;;;29.08;7.35;;;9.30;99.90;;;;;;5066114;28;20414;-66
2022/04/06 09:18:13;;;;;;;33.05;8.00;;;9.20;99.90;;;;;;5034614;28;20040;-68
2022/04/06 09:20:39;;;;;;;33.47;8.93;;;9.50;99.90;;;;;;5041239;28;20485;-71
2022/04/06 09:23:07;;;;;;;32.70;9.43;;;9.50;99.90;;;;;;5030347;28;20500;-68
2022/04/06 09:25:36;;;;;;;28.25;8.18;;;9.30;99.90;;;;;;5036790;28;20040;-69
2022/04/06 09:28:11;;;;;;;32.28;10.10;;;9.60;99.90;;;;;;5050713;28;20044;-70
2022/04/06 09:30:45;;;;;;;28.08;10.35;;;9.40;99.90;;;;;;5034006;28;20068;-70
2022/04/06 09:33:16;;;;;;;29.33;10.38;;;9.50;99.90;;;;;;5050861;28;20041;-72
2022/04/06 09:35:43;;;;;;;38.42;10.88;;;9.60;99.90;;;;;;5050490;28;20128;-68
2022/04/06 09:38:09;;;;;;;36.38;10.73;;;9.70;99.90;;;;;;5051054;28;20041;-65
2022/04/06 09:40:35;;;;;;;30.40;11.93;;;9.50;99.90;;;;;;5049194;28;20076;-68
2022/04/06 09:43:00;;;;;;;41.90;12.52;;;9.50;99.90;;;;;;5050262;28;20063;-68
2022/04/06 09:48:13;;;;;;;32.85;12.23;;;9.80;99.90;;;;;;5040838;28;20049;-68
2022/04/06 09:50:42;;;;;;;42.75;13.07;;;9.80;99.90;;;;;;5028791;28;20037;-66
2022/04/06 09:53:07;;;;;;;36.25;13.15;;;10.00;99.90;;;;;;5033295;28;20033;-71
2022/04/06 09:55:34;;;;;;;39.67;13.77;;;9.90;99.90;;;;;;5041202;28;20060;-72
2022/04/06 09:58:04;;;;;;;41.88;14.13;;;9.90;99.90;;;;;;5047418;28;20048;-71
2022/04/06 10:00:31;;;;;;;38.85;14.50;;;9.90;99.90;;;;;;5048961;28;20041;-70
2022/04/06 10:03:05;;;;;;;43.53;14.40;;;9.90;99.90;;;;;;5047685;28;20538;-70
2022/04/06 10:05:37;;;;;;;34.65;13.30;;;9.90;99.90;;;;;;5026177;28;20415;-68
2022/04/06 10:08:07;;;;;;;35.90;15.20;;;10.00;99.90;;;;;;5045628;28;20194;-71
2022/04/06 10:10:35;;;;;;;35.97;13.93;;;10.00;99.90;;;;;;5063579;28;20116;-67
2022/04/06 10:13:04;;;;;;;38.20;15.00;;;10.00;99.90;;;;;;5042422;28;20072;-71
2022/04/06 10:15:31;;;;;;;33.78;13.73;;;9.90;99.90;;;;;;5047454;28;20128;-68
2022/04/06 10:17:57;;;;;;;42.22;14.35;;;10.10;99.90;;;;;;5033855;28;20044;-71
2022/04/06 10:20:23;;;;;;;42.30;15.13;;;10.10;99.90;;;;;;5048313;28;20032;-72
2022/04/06 10:23:00;;;;;;;36.80;12.80;;;10.20;99.90;;;;;;5049521;28;20397;-70
2022/04/06 10:25:44;;;;;;;36.72;14.30;;;10.00;99.90;;;;;;5047066;28;20036;-70
2022/04/06 10:28:11;;;;;;;33.53;13.43;;;10.10;99.90;;;;;;5033375;28;20407;-67
2022/04/06 10:30:38;;;;;;;40.05;14.43;;;9.90;99.90;;;;;;5061067;28;20167;-68
2022/04/06 10:33:19;;;;;;;37.33;14.95;;;10.00;99.90;;;;;;5049834;28;20056;-69
2022/04/06 10:35:45;;;;;;;40.15;15.38;;;10.00;99.90;;;;;;5053111;28;20195;-72
2022/04/06 10:38:16;;;;;;;39.83;14.90;;;9.90;99.90;;;;;;5047405;28;20119;-65
2022/04/06 10:40:45;;;;;;;39.57;14.67;;;9.80;99.90;;;;;;5049308;28;20116;-70
2022/04/06 10:43:36;;;;;;;38.92;15.63;;;9.80;99.90;;;;;;5032377;28;20043;-68
2022/04/06 10:46:22;;;;;;;50.33;16.70;;;9.80;99.90;;;;;;5048256;28;20048;-70
2022/04/06 10:49:13;;;;;;;42.42;16.17;;;9.90;99.90;;;;;;5037238;28;20045;-70
2022/04/06 10:51:41;;;;;;;39.92;15.40;;;9.80;99.90;;;;;;5045658;28;20434;-72
2022/04/06 10:54:12;;;;;;;44.88;16.25;;;9.80;99.90;;;;;;5048249;28;20102;-73
2022/04/06 10:56:50;;;;;;;38.13;15.27;;;9.70;99.90;;;;;;5046124;28;20043;-70
2022/04/06 10:59:20;;;;;;;46.80;17.45;;;9.80;99.90;;;;;;5047404;28;20132;-69
2022/04/06 11:01:48;;;;;;;46.50;19.20;;;9.90;99.90;;;;;;5046254;28;20492;-65
2022/04/06 11:04:21;;;;;;;48.10;17.73;;;9.90;99.90;;;;;;5049587;28;20033;-70
2022/04/06 11:06:55;;;;;;;49.22;18.80;;;9.90;99.90;;;;;;5049361;28;20035;-68
2022/04/06 11:12:16;;;;;;;51.90;17.90;;;10.20;99.90;;;;;;5049263;28;20113;-65
2022/04/06 11:14:49;;;;;;;54.40;17.55;;;9.90;99.90;;;;;;5048172;28;20063;-69
2022/04/06 11:17:34;;;;;;;48.42;18.17;;;10.10;99.90;;;;;;5040840;28;20128;-70
2022/04/06 11:20:03;;;;;;;48.53;18.35;;;10.00;99.90;;;;;;5041975;28;20041;-70
2022/04/06 11:22:29;;;;;;;48.30;18.92;;;10.10;99.90;;;;;;5049093;28;20510;-69
2022/04/06 11:24:55;;;;;;;44.83;17.08;;;10.30;99.90;;;;;;5048923;28;20029;-71
2022/04/06 11:27:32;;;;;;;39.65;15.73;;;10.50;99.90;;;;;;5049439;28;20108;-67
2022/04/06 11:30:07;;;;;;;42.33;16.40;;;10.50;99.90;;;;;;5047282;28;20564;-68
2022/04/06 11:32:33;;;;;;;42.22;16.70;;;10.60;99.90;;;;;;5061162;28;20049;-67
2022/04/06 11:35:09;;;;;;;53.38;18.20;;;10.50;99.90;;;;;;5032746;28;20381;-67
2022/04/06 11:37:47;;;;;;;55.78;18.70;;;10.80;99.90;;;;;;5048770;28;20033;-66
2022/04/06 11:40:17;;;;;;;49.20;18.20;;;10.70;99.90;;;;;;5048763;28;20041;-69
2022/04/06 11:42:54;;;;;;;49.17;18.30;;;10.80;99.90;;;;;;5049302;28;20076;-70
2022/04/06 11:45:26;;;;;;;55.35;18.23;;;10.80;99.90;;;;;;5065411;28;20487;-70
2022/04/06 11:47:56;;;;;;;51.05;18.90;;;10.60;99.90;;;;;;5048763;28;20043;-69
2022/04/06 11:50:31;;;;;;;54.10;19.75;;;11.00;99.90;;;;;;5048888;28;20037;-67
2022/04/06 11:53:18;;;;;;;63.17;21.20;;;10.90;99.90;;;;;;5050359;28;20392;-69
2022/04/06 11:55:51;;;;;;;49.15;17.30;;;11.40;99.90;;;;;;5048369;28;20052;-67
2022/04/06 11:58:43;;;;;;;49.33;18.45;;;11.30;99.90;;;;;;5050483;28;20069;-71
2022/04/06 12:01:18;;;;;;;48.23;17.47;;;11.40;99.90;;;;;;5063216;28;20029;-70
2022/04/06 12:03:45;;;;;;;49.85;15.90;;;11.20;99.90;;;;;;5052281;28;20076;-69
2022/04/06 12:06:16;;;;;;;53.20;17.77;;;11.40;99.90;;;;;;5035412;28;20048;-68
2022/04/06 12:08:46;;;;;;;50.35;18.15;;;11.30;99.90;;;;;;5052778;28;20491;-67
2022/04/06 12:11:12;;;;;;;44.08;17.65;;;11.60;99.90;;;;;;5049592;28;20041;-69
2022/04/06 12:13:40;;;;;;;50.28;16.95;;;11.50;99.90;;;;;;5051191;28;20036;-74
2022/04/06 12:16:06;;;;;;;47.30;17.75;;;11.50;99.90;;;;;;5045954;28;20044;-69
2022/04/06 12:18:33;;;;;;;42.30;16.15;;;11.30;99.90;;;;;;5051996;28;20040;-70
2022/04/06 12:20:59;;;;;;;41.00;15.75;;;11.30;99.90;;;;;;5050946;28;20484;-66
2022/04/06 12:23:26;;;;;;;44.05;17.52;;;11.00;99.90;;;;;;5052665;28;20040;-65
2022/04/06 12:25:52;;;;;;;41.85;15.93;;;11.10;99.90;;;;;;5052655;28;20044;-68
2022/04/06 12:28:23;;;;;;;38.60;14.35;;;11.00;99.90;;;;;;5052685;28;20438;-71
2022/04/06 12:31:07;;;;;;;47.50;16.58;;;11.00;99.90;;;;;;5052225;28;20037;-69
2022/04/06 12:33:50;;;;;;;44.30;18.05;;;11.20;99.90;;;;;;5036378;28;20507;-68
2022/04/06 12:36:24;;;;;;;45.33;19.23;;;11.30;99.90;;;;;;5048688;28;20033;-69
2022/04/06 12:38:59;;;;;;;51.85;19.17;;;11.20;99.90;;;;;;5031490;28;20137;-70
2022/04/06 12:41:27;;;;;;;51.10;19.13;;;11.20;99.90;;;;;;5031929;28;20037;-71
2022/04/06 12:43:53;;;;;;;53.90;20.13;;;11.10;99.90;;;;;;5048494;28;20044;-70
2022/04/06 12:46:42;;;;;;;46.05;18.52;;;11.00;99.90;;;;;;5048766;28;20098;-71
2022/04/06 12:49:26;;;;;;;44.33;18.65;;;11.00;99.90;;;;;;5032096;28;20041;-69
2022/04/06 12:52:24;;;;;;;40.10;17.08;;;11.00;99.90;;;;;;5040811;28;20075;-71
2022/04/06 12:54:52;;;;;;;45.22;18.02;;;10.90;99.90;;;;;;5024223;28;20144;-68